sensor_id;sensor_type;location;lat;lon;timestamp;pressure;altitude;pressure_sealevel;temperature;humidity
73429;BME280;61643;49.564;17.412;2023-03-12T07:27:12;98054.81;;;-0.93;88.89
73429;BME280;61643;49.564;17.412;2023-03-12T07:29:38;98045.06;;;-0.92;89.88
73429;BME280;61643;49.564;17.412;2023-03-12T07:32:04;98048.06;;;-1.17;88.94
73429;BME280;61643;49.564;17.412;2023-03-12T07:34:30;98052.06;;;-1.06;88.92
73429;BME280;61643;49.564;17.412;2023-03-12T07:36:55;98049.56;;;-1.29;89.68
73429;BME280;61643;49.564;17.412;2023-03-12T07:39:21;98046.47;;;-1.32;89.37
73429;BME280;61643;49.564;17.412;2023-03-12T07:41:48;98054.53;;;-1.19;90.14
73429;BME280;61643;49.564;17.412;2023-03-12T07:44:14;98044.41;;;-1.16;91.58
73429;BME280;61643;49.564;17.412;2023-03-12T07:46:40;98059.09;;;-1.13;88.51
73429;BME280;61643;49.564;17.412;2023-03-12T07:49:06;98049.41;;;-1.06;89.04
73429;BME280;61643;49.564;17.412;2023-03-12T07:51:32;98053.50;;;-1.04;88.66
73429;BME280;61643;49.564;17.412;2023-03-12T07:53:58;98057.94;;;-1.04;88.05
73429;BME280;61643;49.564;17.412;2023-03-12T07:56:24;98057.28;;;-0.91;89.87
73429;BME280;61643;49.564;17.412;2023-03-12T07:58:50;98052.50;;;-0.81;88.98
73429;BME280;61643;49.564;17.412;2023-03-12T08:01:16;98053.25;;;-0.87;88.80
73429;BME280;61643;49.564;17.412;2023-03-12T08:03:42;98053.19;;;-0.73;89.51
73429;BME280;61643;49.564;17.412;2023-03-12T08:06:08;98063.88;;;-0.60;89.84
73429;BME280;61643;49.564;17.412;2023-03-12T08:08:34;98052.94;;;-0.57;89.31
73429;BME280;61643;49.564;17.412;2023-03-12T08:11:03;98055.56;;;-0.57;89.21
73429;BME280;61643;49.564;17.412;2023-03-12T08:13:29;98059.28;;;-0.51;87.17
73429;BME280;61643;49.564;17.412;2023-03-12T08:15:55;98068.75;;;-0.35;85.12
73429;BME280;61643;49.564;17.412;2023-03-12T08:18:21;98066.16;;;-0.29;85.07
73429;BME280;61643;49.564;17.412;2023-03-12T08:20:49;98060.56;;;-0.19;83.88
73429;BME280;61643;49.564;17.412;2023-03-12T08:23:16;98058.38;;;-0.09;84.25
73429;BME280;61643;49.564;17.412;2023-03-12T08:25:47;98072.34;;;0.06;83.83
73429;BME280;61643;49.564;17.412;2023-03-12T08:28:14;98062.63;;;0.13;84.88
73429;BME280;61643;49.564;17.412;2023-03-12T08:30:45;98067.56;;;0.29;82.61
73429;BME280;61643;49.564;17.412;2023-03-12T08:33:11;98072.50;;;0.32;82.93
73429;BME280;61643;49.564;17.412;2023-03-12T08:35:37;98065.09;;;0.21;80.17
73429;BME280;61643;49.564;17.412;2023-03-12T08:38:03;98063.53;;;0.33;80.78
73429;BME280;61643;49.564;17.412;2023-03-12T08:40:29;98064.16;;;0.35;79.90
73429;BME280;61643;49.564;17.412;2023-03-12T08:42:55;98074.38;;;0.38;81.92
73429;BME280;61643;49.564;17.412;2023-03-12T08:45:21;98063.00;;;0.51;80.23
73429;BME280;61643;49.564;17.412;2023-03-12T08:47:47;98068.72;;;0.55;79.58
73429;BME280;61643;49.564;17.412;2023-03-12T08:50:14;98061.59;;;0.55;78.79
73429;BME280;61643;49.564;17.412;2023-03-12T08:52:42;98072.84;;;0.64;79.19
73429;BME280;61643;49.564;17.412;2023-03-12T08:55:11;98080.81;;;0.64;78.68
73429;BME280;61643;49.564;17.412;2023-03-12T08:57:37;98076.59;;;0.76;78.79
73429;BME280;61643;49.564;17.412;2023-03-12T09:00:05;98074.34;;;0.79;77.83
73429;BME280;61643;49.564;17.412;2023-03-12T09:02:36;98069.47;;;0.83;77.49
73429;BME280;61643;49.564;17.412;2023-03-12T09:05:03;98065.22;;;0.88;78.61
73429;BME280;61643;49.564;17.412;2023-03-12T09:07:30;98073.13;;;0.82;76.41
73429;BME280;61643;49.564;17.412;2023-03-12T09:09:57;98067.84;;;0.82;77.19
73429;BME280;61643;49.564;17.412;2023-03-12T09:12:23;98063.53;;;0.81;77.53
73429;BME280;61643;49.564;17.412;2023-03-12T09:14:50;98062.56;;;0.95;78.74
73429;BME280;61643;49.564;17.412;2023-03-12T09:17:17;98067.03;;;0.88;76.21
73429;BME280;61643;49.564;17.412;2023-03-12T09:19:43;98067.25;;;0.93;78.36
73429;BME280;61643;49.564;17.412;2023-03-12T09:22:09;98058.94;;;1.09;77.46
73429;BME280;61643;49.564;17.412;2023-03-12T09:24:35;98059.56;;;1.11;77.54
73429;BME280;61643;49.564;17.412;2023-03-12T09:27:02;98068.75;;;1.15;77.05
73429;BME280;61643;49.564;17.412;2023-03-12T09:29:30;98063.88;;;1.25;78.08
73429;BME280;61643;49.564;17.412;2023-03-12T09:31:56;98060.63;;;1.36;77.32
73429;BME280;61643;49.564;17.412;2023-03-12T09:34:23;98069.19;;;1.32;74.10
73429;BME280;61643;49.564;17.412;2023-03-12T09:36:49;98069.41;;;1.37;76.36
73429;BME280;61643;49.564;17.412;2023-03-12T09:39:15;98054.91;;;1.26;74.36
73429;BME280;61643;49.564;17.412;2023-03-12T09:41:43;98065.53;;;1.46;76.16
73429;BME280;61643;49.564;17.412;2023-03-12T09:44:19;98054.09;;;1.52;73.71
73429;BME280;61643;49.564;17.412;2023-03-12T09:46:53;98061.69;;;1.68;75.35
73429;BME280;61643;49.564;17.412;2023-03-12T09:49:45;98065.56;;;1.72;73.73
73429;BME280;61643;49.564;17.412;2023-03-12T09:52:33;98065.34;;;1.74;73.95
73429;BME280;61643;49.564;17.412;2023-03-12T09:55:19;98067.59;;;1.77;72.70
73429;BME280;61643;49.564;17.412;2023-03-12T09:57:47;98076.56;;;1.76;71.04
73429;BME280;61643;49.564;17.412;2023-03-12T10:00:17;98068.63;;;1.82;71.69
73429;BME280;61643;49.564;17.412;2023-03-12T10:05:35;98071.88;;;1.78;71.61
73429;BME280;61643;49.564;17.412;2023-03-12T10:13:43;98072.28;;;1.75;71.01
73429;BME280;61643;49.564;17.412;2023-03-12T10:16:33;98075.75;;;1.88;72.03
73429;BME280;61643;49.564;17.412;2023-03-12T10:19:33;98064.31;;;2.08;70.25
73429;BME280;61643;49.564;17.412;2023-03-12T10:27:14;98073.84;;;2.28;71.50
73429;BME280;61643;49.564;17.412;2023-03-12T10:29:43;98077.31;;;2.48;71.29
73429;BME280;61643;49.564;17.412;2023-03-12T10:32:29;98075.81;;;2.66;70.81
73429;BME280;61643;49.564;17.412;2023-03-12T10:35:23;98085.19;;;2.75;70.04
73429;BME280;61643;49.564;17.412;2023-03-12T10:37:53;98065.31;;;2.84;70.26
73429;BME280;61643;49.564;17.412;2023-03-12T10:40:25;98072.44;;;2.96;68.87
73429;BME280;61643;49.564;17.412;2023-03-12T10:42:52;98076.28;;;3.01;64.65
73429;BME280;61643;49.564;17.412;2023-03-12T10:48:20;98072.63;;;2.95;63.71
73429;BME280;61643;49.564;17.412;2023-03-12T10:51:10;98071.38;;;2.97;64.48
73429;BME280;61643;49.564;17.412;2023-03-12T10:53:42;98073.63;;;3.01;68.43
73429;BME280;61643;49.564;17.412;2023-03-12T10:56:11;98075.09;;;2.96;62.42
73429;BME280;61643;49.564;17.412;2023-03-12T10:58:41;98077.91;;;3.02;64.41
73429;BME280;61643;49.564;17.412;2023-03-12T11:01:19;98078.09;;;3.07;67.41
73429;BME280;61643;49.564;17.412;2023-03-12T11:03:45;98079.28;;;3.17;66.37
73429;BME280;61643;49.564;17.412;2023-03-12T11:06:26;98078.41;;;3.23;68.23
73429;BME280;61643;49.564;17.412;2023-03-12T11:09:15;98078.81;;;3.27;66.19
73429;BME280;61643;49.564;17.412;2023-03-12T11:11:43;98077.53;;;3.36;66.10
73429;BME280;61643;49.564;17.412;2023-03-12T11:16:39;98071.56;;;3.40;66.13
73429;BME280;61643;49.564;17.412;2023-03-12T11:19:05;98071.28;;;3.48;66.30
73429;BME280;61643;49.564;17.412;2023-03-12T11:21:34;98068.16;;;3.58;63.94
73429;BME280;61643;49.564;17.412;2023-03-12T11:26:34;98059.72;;;3.68;67.38
73429;BME280;61643;49.564;17.412;2023-03-12T11:29:04;98059.44;;;3.76;64.00
73429;BME280;61643;49.564;17.412;2023-03-12T11:31:38;98054.38;;;3.92;66.52
73429;BME280;61643;49.564;17.412;2023-03-12T11:34:11;98057.81;;;4.00;63.31
73429;BME280;61643;49.564;17.412;2023-03-12T11:39:53;98050.72;;;4.12;64.59
73429;BME280;61643;49.564;17.412;2023-03-12T11:42:26;98060.28;;;4.19;63.31
73429;BME280;61643;49.564;17.412;2023-03-12T11:50:26;98036.47;;;4.24;63.57
73429;BME280;61643;49.564;17.412;2023-03-12T11:53:12;98036.69;;;4.23;60.05
73429;BME280;61643;49.564;17.412;2023-03-12T12:04:33;98024.53;;;4.45;58.77
73429;BME280;61643;49.564;17.412;2023-03-12T12:18:16;98024.25;;;4.35;63.66
73429;BME280;61643;49.564;17.412;2023-03-12T12:21:01;98010.63;;;4.43;62.87
73429;BME280;61643;49.564;17.412;2023-03-12T12:26:06;98013.97;;;4.57;61.95
73429;BME280;61643;49.564;17.412;2023-03-12T12:36:33;97997.94;;;4.75;60.80
73429;BME280;61643;49.564;17.412;2023-03-12T12:39:10;97999.03;;;4.85;61.03
73429;BME280;61643;49.564;17.412;2023-03-12T12:41:43;98005.56;;;4.89;60.70
73429;BME280;61643;49.564;17.412;2023-03-12T12:44:15;97997.09;;;4.92;59.10
73429;BME280;61643;49.564;17.412;2023-03-12T12:46:49;97997.44;;;4.96;61.00
73429;BME280;61643;49.564;17.412;2023-03-12T12:49:24;97992.84;;;5.03;60.40
73429;BME280;61643;49.564;17.412;2023-03-12T12:51:56;97994.31;;;5.17;58.51
73429;BME280;61643;49.564;17.412;2023-03-12T12:54:39;97988.88;;;5.24;56.10
73429;BME280;61643;49.564;17.412;2023-03-12T12:57:15;97988.75;;;5.30;57.70
73429;BME280;61643;49.564;17.412;2023-03-12T13:00:12;97979.84;;;5.36;57.62
73429;BME280;61643;49.564;17.412;2023-03-12T13:02:41;97973.81;;;5.41;56.69
73429;BME280;61643;49.564;17.412;2023-03-12T13:05:20;97966.50;;;5.36;55.15
73429;BME280;61643;49.564;17.412;2023-03-12T13:07:46;97972.28;;;5.33;57.10
73429;BME280;61643;49.564;17.412;2023-03-12T13:13:18;97980.09;;;5.35;53.64
73429;BME280;61643;49.564;17.412;2023-03-12T13:15:45;97974.84;;;5.40;56.33
73429;BME280;61643;49.564;17.412;2023-03-12T13:26:07;97969.63;;;5.33;53.40
73429;BME280;61643;49.564;17.412;2023-03-12T13:33:57;97956.63;;;5.37;52.99
73429;BME280;61643;49.564;17.412;2023-03-12T13:36:27;97958.63;;;5.41;53.10
73429;BME280;61643;49.564;17.412;2023-03-12T13:44:00;97964.06;;;5.35;50.83
73429;BME280;61643;49.564;17.412;2023-03-12T13:46:45;97961.88;;;5.43;49.21
73429;BME280;61643;49.564;17.412;2023-03-12T13:49:14;97955.63;;;5.50;47.38
73429;BME280;61643;49.564;17.412;2023-03-12T13:52:06;97962.69;;;5.56;51.86
73429;BME280;61643;49.564;17.412;2023-03-12T13:54:39;97968.03;;;5.56;50.69
73429;BME280;61643;49.564;17.412;2023-03-12T13:57:20;97962.81;;;5.49;50.63
73429;BME280;61643;49.564;17.412;2023-03-12T13:59:49;97967.19;;;5.43;49.47
73429;BME280;61643;49.564;17.412;2023-03-12T14:02:26;97969.66;;;5.45;49.65
73429;BME280;61643;49.564;17.412;2023-03-12T14:04:59;97966.50;;;5.36;49.85
73429;BME280;61643;49.564;17.412;2023-03-12T14:10:35;97965.47;;;5.37;49.47
73429;BME280;61643;49.564;17.412;2023-03-12T14:15:51;97973.69;;;5.36;49.99
73429;BME280;61643;49.564;17.412;2023-03-12T14:18:22;97981.00;;;5.40;49.11
73429;BME280;61643;49.564;17.412;2023-03-12T14:20:55;97969.75;;;5.38;45.73
73429;BME280;61643;49.564;17.412;2023-03-12T14:23:27;97979.19;;;5.53;44.12
73429;BME280;61643;49.564;17.412;2023-03-12T14:25:59;97984.75;;;5.51;49.19
73429;BME280;61643;49.564;17.412;2023-03-12T14:28:27;97982.41;;;5.43;44.65
73429;BME280;61643;49.564;17.412;2023-03-12T14:31:12;97983.22;;;5.43;47.26
73429;BME280;61643;49.564;17.412;2023-03-12T14:33:46;97987.06;;;5.47;44.48
73429;BME280;61643;49.564;17.412;2023-03-12T14:36:17;97981.00;;;5.40;49.35
73429;BME280;61643;49.564;17.412;2023-03-12T14:38:46;97989.94;;;5.34;47.84
73429;BME280;61643;49.564;17.412;2023-03-12T14:41:34;97989.34;;;5.21;50.48
73429;BME280;61643;49.564;17.412;2023-03-12T14:44:04;97987.34;;;5.16;46.23
73429;BME280;61643;49.564;17.412;2023-03-12T14:46:30;97984.22;;;5.19;43.91
73429;BME280;61643;49.564;17.412;2023-03-12T14:48:56;97980.50;;;5.20;42.59
73429;BME280;61643;49.564;17.412;2023-03-12T14:51:25;97965.19;;;5.16;46.10
73429;BME280;61643;49.564;17.412;2023-03-12T14:53:51;97965.59;;;5.01;47.49
73429;BME280;61643;49.564;17.412;2023-03-12T14:56:26;97965.44;;;4.96;49.24
73429;BME280;61643;49.564;17.412;2023-03-12T14:58:59;97952.78;;;4.80;49.59
73429;BME280;61643;49.564;17.412;2023-03-12T15:01:27;97953.69;;;4.74;48.86
73429;BME280;61643;49.564;17.412;2023-03-12T15:03:58;97952.06;;;4.73;48.21
73429;BME280;61643;49.564;17.412;2023-03-12T15:06:43;97942.31;;;4.78;50.02
73429;BME280;61643;49.564;17.412;2023-03-12T15:09:21;97934.47;;;4.83;49.44
73429;BME280;61643;49.564;17.412;2023-03-12T15:14:19;97927.53;;;4.94;50.40
73429;BME280;61643;49.564;17.412;2023-03-12T15:16:47;97930.78;;;4.96;49.91
73429;BME280;61643;49.564;17.412;2023-03-12T15:19:15;97931.75;;;5.02;47.99
73429;BME280;61643;49.564;17.412;2023-03-12T15:21:43;97925.94;;;5.05;48.13
73429;BME280;61643;49.564;17.412;2023-03-12T15:24:12;97924.09;;;5.05;50.15
73429;BME280;61643;49.564;17.412;2023-03-12T15:26:39;97926.97;;;5.04;50.27
73429;BME280;61643;49.564;17.412;2023-03-12T15:31:56;97919.22;;;5.02;50.47
73429;BME280;61643;49.564;17.412;2023-03-12T15:34:37;97918.06;;;4.98;49.83
73429;BME280;61643;49.564;17.412;2023-03-12T15:37:32;97917.91;;;4.93;51.04
73429;BME280;61643;49.564;17.412;2023-03-12T15:40:18;97923.34;;;4.86;50.09
73429;BME280;61643;49.564;17.412;2023-03-12T15:42:45;97925.88;;;4.81;52.76
73429;BME280;61643;49.564;17.412;2023-03-12T15:45:24;97925.41;;;4.73;52.79
73429;BME280;61643;49.564;17.412;2023-03-12T15:47:53;97917.84;;;4.70;53.00
73429;BME280;61643;49.564;17.412;2023-03-12T15:50:29;97919.91;;;4.68;55.48
73429;BME280;61643;49.564;17.412;2023-03-12T15:53:02;97923.59;;;4.67;56.86
73429;BME280;61643;49.564;17.412;2023-03-12T15:55:30;97922.47;;;4.63;54.93
73429;BME280;61643;49.564;17.412;2023-03-12T15:57:58;97913.88;;;4.61;54.92
73429;BME280;61643;49.564;17.412;2023-03-12T16:00:28;97922.78;;;4.55;54.16
73429;BME280;61643;49.564;17.412;2023-03-12T16:02:57;97905.50;;;4.57;54.27
73429;BME280;61643;49.564;17.412;2023-03-12T16:05:35;97924.41;;;4.56;55.61
73429;BME280;61643;49.564;17.412;2023-03-12T16:08:24;97924.81;;;4.53;56.20
73429;BME280;61643;49.564;17.412;2023-03-12T16:10:52;97922.88;;;4.48;58.93
73429;BME280;61643;49.564;17.412;2023-03-12T16:13:20;97915.28;;;4.45;58.59
73429;BME280;61643;49.564;17.412;2023-03-12T16:15:47;97916.56;;;4.42;59.10
73429;BME280;61643;49.564;17.412;2023-03-12T16:18:15;97916.44;;;4.37;59.96
73429;BME280;61643;49.564;17.412;2023-03-12T16:20:43;97910.28;;;4.37;61.48
73429;BME280;61643;49.564;17.412;2023-03-12T16:23:09;97907.25;;;4.33;60.94
73429;BME280;61643;49.564;17.412;2023-03-12T16:25:36;97905.47;;;4.27;60.56
73429;BME280;61643;49.564;17.412;2023-03-12T16:28:05;97914.75;;;4.25;61.81
73429;BME280;61643;49.564;17.412;2023-03-12T16:30:33;97912.88;;;4.25;61.90
73429;BME280;61643;49.564;17.412;2023-03-12T16:33:00;97913.09;;;4.24;62.19
73429;BME280;61643;49.564;17.412;2023-03-12T16:35:27;97917.50;;;4.18;62.47
73429;BME280;61643;49.564;17.412;2023-03-12T16:37:54;97920.16;;;4.18;63.35
73429;BME280;61643;49.564;17.412;2023-03-12T16:40:20;97929.78;;;4.19;62.03
73429;BME280;61643;49.564;17.412;2023-03-12T16:42:49;97933.91;;;4.15;63.95
73429;BME280;61643;49.564;17.412;2023-03-12T16:45:16;97933.31;;;4.13;65.01
73429;BME280;61643;49.564;17.412;2023-03-12T16:47:43;97935.16;;;4.13;65.75
73429;BME280;61643;49.564;17.412;2023-03-12T16:50:21;97933.31;;;4.13;65.33
73429;BME280;61643;49.564;17.412;2023-03-12T16:52:48;97930.16;;;4.05;63.12
73429;BME280;61643;49.564;17.412;2023-03-12T16:55:22;97926.78;;;4.09;64.48
73429;BME280;61643;49.564;17.412;2023-03-12T16:57:55;97928.88;;;4.07;65.03
73429;BME280;61643;49.564;17.412;2023-03-12T17:00:27;97917.88;;;4.04;65.37
73429;BME280;61643;49.564;17.412;2023-03-12T17:02:53;97912.38;;;3.98;63.24
73429;BME280;61643;49.564;17.412;2023-03-12T17:05:24;97906.91;;;3.93;62.92
73429;BME280;61643;49.564;17.412;2023-03-12T17:07:50;97918.75;;;3.97;63.94
73429;BME280;61643;49.564;17.412;2023-03-12T17:10:16;97920.44;;;3.92;63.27
73429;BME280;61643;49.564;17.412;2023-03-12T17:12:42;97913.06;;;3.94;64.25
73429;BME280;61643;49.564;17.412;2023-03-12T17:15:27;97927.97;;;3.95;64.00
73429;BME280;61643;49.564;17.412;2023-03-12T17:17:55;97920.88;;;3.89;63.55
73429;BME280;61643;49.564;17.412;2023-03-12T17:20:23;97928.44;;;3.92;64.08
73429;BME280;61643;49.564;17.412;2023-03-12T17:22:49;97927.84;;;3.90;64.66
73429;BME280;61643;49.564;17.412;2023-03-12T17:25:27;97922.19;;;3.80;64.72
73429;BME280;61643;49.564;17.412;2023-03-12T17:27:53;97911.06;;;3.89;64.21
73429;BME280;61643;49.564;17.412;2023-03-12T17:30:23;97919.19;;;3.94;63.46
73429;BME280;61643;49.564;17.412;2023-03-12T17:32:50;97922.66;;;3.95;63.47
73429;BME280;61643;49.564;17.412;2023-03-12T17:35:17;97915.00;;;3.87;63.37
73429;BME280;61643;49.564;17.412;2023-03-12T17:37:44;97914.75;;;3.88;63.10
73429;BME280;61643;49.564;17.412;2023-03-12T17:40:13;97912.53;;;3.85;64.04
73429;BME280;61643;49.564;17.412;2023-03-12T17:42:40;97916.22;;;3.84;64.56
73429;BME280;61643;49.564;17.412;2023-03-12T17:45:07;97917.03;;;3.85;64.85
73429;BME280;61643;49.564;17.412;2023-03-12T17:47:34;97925.03;;;3.85;65.45
73429;BME280;61643;49.564;17.412;2023-03-12T17:50:01;97922.81;;;3.82;65.73
73429;BME280;61643;49.564;17.412;2023-03-12T17:52:27;97923.84;;;3.81;65.66
73429;BME280;61643;49.564;17.412;2023-03-12T17:54:54;97928.50;;;3.85;65.73
73429;BME280;61643;49.564;17.412;2023-03-12T17:57:20;97918.06;;;3.84;64.64
73429;BME280;61643;49.564;17.412;2023-03-12T17:59:47;97911.56;;;3.80;64.67
73429;BME280;61643;49.564;17.412;2023-03-12T18:02:13;97920.34;;;3.80;64.92
73429;BME280;61643;49.564;17.412;2023-03-12T18:04:39;97906.09;;;3.75;65.63
73429;BME280;61643;49.564;17.412;2023-03-12T18:07:04;97920.97;;;3.82;65.16
73429;BME280;61643;49.564;17.412;2023-03-12T18:09:31;97914.63;;;3.83;64.94
73429;BME280;61643;49.564;17.412;2023-03-12T18:11:57;97911.13;;;3.83;64.63
73429;BME280;61643;49.564;17.412;2023-03-12T18:14:23;97912.53;;;3.85;64.58
73429;BME280;61643;49.564;17.412;2023-03-12T18:16:49;97916.00;;;3.86;63.54
73429;BME280;61643;49.564;17.412;2023-03-12T18:19:15;97902.91;;;3.84;65.06
73429;BME280;61643;49.564;17.412;2023-03-12T18:21:41;97897.59;;;3.84;64.93
73429;BME280;61643;49.564;17.412;2023-03-12T18:24:07;97904.75;;;3.84;65.04
73429;BME280;61643;49.564;17.412;2023-03-12T18:26:33;97912.53;;;3.85;64.73
73429;BME280;61643;49.564;17.412;2023-03-12T18:28:59;97912.75;;;3.84;64.91
73429;BME280;61643;49.564;17.412;2023-03-12T18:31:27;97916.66;;;3.81;65.70
73429;BME280;61643;49.564;17.412;2023-03-12T18:33:53;97914.09;;;3.75;65.28
73429;BME280;61643;49.564;17.412;2023-03-12T18:36:19;97915.63;;;3.82;64.75
73429;BME280;61643;49.564;17.412;2023-03-12T18:38:45;97924.06;;;3.79;64.86
73429;BME280;61643;49.564;17.412;2023-03-12T18:41:12;97939.22;;;3.79;64.56
73429;BME280;61643;49.564;17.412;2023-03-12T18:43:39;97940.63;;;3.81;65.41
73429;BME280;61643;49.564;17.412;2023-03-12T18:46:06;97933.28;;;3.77;64.53
73429;BME280;61643;49.564;17.412;2023-03-12T18:48:34;97927.75;;;3.78;64.45
73429;BME280;61643;49.564;17.412;2023-03-12T18:51:00;97924.28;;;3.78;64.35
73429;BME280;61643;49.564;17.412;2023-03-12T18:53:26;97922.44;;;3.78;64.26
73429;BME280;61643;49.564;17.412;2023-03-12T18:55:53;97930.41;;;3.78;64.55
73429;BME280;61643;49.564;17.412;2023-03-12T18:58:20;97936.56;;;3.79;64.82
73429;BME280;61643;49.564;17.412;2023-03-12T19:00:50;97933.66;;;3.80;64.92
73429;BME280;61643;49.564;17.412;2023-03-12T19:03:16;97925.91;;;3.79;64.52
73429;BME280;61643;49.564;17.412;2023-03-12T19:05:42;97916.88;;;3.80;64.80
73429;BME280;61643;49.564;17.412;2023-03-12T19:08:08;97922.19;;;3.80;64.48
73429;BME280;61643;49.564;17.412;2023-03-12T19:10:34;97920.16;;;3.82;63.82
73429;BME280;61643;49.564;17.412;2023-03-12T19:12:59;97921.63;;;3.78;63.27
73429;BME280;61643;49.564;17.412;2023-03-12T19:15:25;97917.47;;;3.82;64.63
73429;BME280;61643;49.564;17.412;2023-03-12T19:17:51;97921.78;;;3.83;64.41
73429;BME280;61643;49.564;17.412;2023-03-12T19:20:19;97930.34;;;3.85;64.42
73429;BME280;61643;49.564;17.412;2023-03-12T19:22:45;97917.69;;;3.80;63.86
73429;BME280;61643;49.564;17.412;2023-03-12T19:25:11;97914.97;;;3.69;63.65
73429;BME280;61643;49.564;17.412;2023-03-12T19:27:37;97923.53;;;3.71;64.81
73429;BME280;61643;49.564;17.412;2023-03-12T19:30:04;97926.00;;;3.72;64.65
73429;BME280;61643;49.564;17.412;2023-03-12T19:32:30;97929.22;;;3.74;64.60
73429;BME280;61643;49.564;17.412;2023-03-12T19:34:56;97926.34;;;3.76;64.75
73429;BME280;61643;49.564;17.412;2023-03-12T19:37:22;97938.16;;;3.80;64.63
73429;BME280;61643;49.564;17.412;2023-03-12T19:39:48;97932.25;;;3.78;65.28
73429;BME280;61643;49.564;17.412;2023-03-12T19:42:14;97937.00;;;3.76;64.96
73429;BME280;61643;49.564;17.412;2023-03-12T19:44:39;97935.94;;;3.77;64.86
73429;BME280;61643;49.564;17.412;2023-03-12T19:47:06;97945.38;;;3.79;65.21
73429;BME280;61643;49.564;17.412;2023-03-12T19:49:34;97948.81;;;3.80;65.18
73429;BME280;61643;49.564;17.412;2023-03-12T19:52:00;97947.59;;;3.82;65.12
73429;BME280;61643;49.564;17.412;2023-03-12T19:54:26;97935.38;;;3.75;64.90
73429;BME280;61643;49.564;17.412;2023-03-12T19:56:52;97935.75;;;3.78;65.13
73429;BME280;61643;49.564;17.412;2023-03-12T19:59:18;97938.78;;;3.82;65.86
73429;BME280;61643;49.564;17.412;2023-03-12T20:01:44;97944.75;;;3.77;66.62
73429;BME280;61643;49.564;17.412;2023-03-12T20:04:10;97949.63;;;3.80;66.37
73429;BME280;61643;49.564;17.412;2023-03-12T20:06:37;97948.16;;;3.84;66.36
73429;BME280;61643;49.564;17.412;2023-03-12T20:09:04;97950.25;;;3.82;65.69
73429;BME280;61643;49.564;17.412;2023-03-12T20:11:31;97956.31;;;3.89;65.36
73429;BME280;61643;49.564;17.412;2023-03-12T20:13:58;97942.56;;;3.92;65.71
73429;BME280;61643;49.564;17.412;2023-03-12T20:16:24;97924.75;;;3.93;65.97
73429;BME280;61643;49.564;17.412;2023-03-12T20:18:50;97927.84;;;3.90;65.67
73429;BME280;61643;49.564;17.412;2023-03-12T20:21:16;97925.63;;;3.87;66.14
73429;BME280;61643;49.564;17.412;2023-03-12T20:23:42;97930.34;;;3.85;65.82
73429;BME280;61643;49.564;17.412;2023-03-12T20:26:08;97915.78;;;3.87;66.28
73429;BME280;61643;49.564;17.412;2023-03-12T20:28:34;97916.00;;;3.86;66.38
73429;BME280;61643;49.564;17.412;2023-03-12T20:31:12;97907.78;;;3.87;67.24
73429;BME280;61643;49.564;17.412;2023-03-12T20:33:38;97905.13;;;3.87;66.91
73429;BME280;61643;49.564;17.412;2023-03-12T20:36:06;97901.69;;;3.87;67.18
73429;BME280;61643;49.564;17.412;2023-03-12T20:38:33;97901.69;;;3.87;68.03
73429;BME280;61643;49.564;17.412;2023-03-12T20:40:59;97899.59;;;3.89;67.29
73429;BME280;61643;49.564;17.412;2023-03-12T20:43:25;97905.13;;;3.87;68.55
73429;BME280;61643;49.564;17.412;2023-03-12T20:45:51;97906.31;;;3.91;68.70
73429;BME280;61643;49.564;17.412;2023-03-12T20:48:16;97904.47;;;3.92;68.83
73429;BME280;61643;49.564;17.412;2023-03-12T20:50:44;97913.63;;;3.96;68.45
73429;BME280;61643;49.564;17.412;2023-03-12T20:53:10;97916.50;;;3.94;69.02
73429;BME280;61643;49.564;17.412;2023-03-12T20:55:39;97916.69;;;4.00;69.20
73429;BME280;61643;49.564;17.412;2023-03-12T20:58:05;97919.72;;;4.03;68.77
73429;BME280;61643;49.564;17.412;2023-03-12T21:00:31;97918.44;;;4.06;69.93
73429;BME280;61643;49.564;17.412;2023-03-12T21:02:58;97923.34;;;4.09;70.02
73429;BME280;61643;49.564;17.412;2023-03-12T21:05:25;97943.38;;;4.11;70.82
73429;BME280;61643;49.564;17.412;2023-03-12T21:07:52;97943.97;;;4.13;71.14
73429;BME280;61643;49.564;17.412;2023-03-12T21:10:19;97949.91;;;4.15;72.10
73429;BME280;61643;49.564;17.412;2023-03-12T21:12:45;97949.09;;;4.15;72.63
73429;BME280;61643;49.564;17.412;2023-03-12T21:15:11;97945.59;;;4.14;72.77
73429;BME280;61643;49.564;17.412;2023-03-12T21:17:38;97955.81;;;4.17;72.94
73429;BME280;61643;49.564;17.412;2023-03-12T21:20:08;97948.06;;;4.16;73.57
73429;BME280;61643;49.564;17.412;2023-03-12T21:22:34;97952.13;;;4.18;74.42
73429;BME280;61643;49.564;17.412;2023-03-12T21:25:01;97953.75;;;4.19;73.79
73429;BME280;61643;49.564;17.412;2023-03-12T21:27:27;97968.47;;;4.22;74.59
73429;BME280;61643;49.564;17.412;2023-03-12T21:29:54;97970.69;;;4.25;74.45
73429;BME280;61643;49.564;17.412;2023-03-12T21:32:20;97968.84;;;4.25;75.85
73429;BME280;61643;49.564;17.412;2023-03-12T21:34:47;97965.34;;;4.25;77.09
73429;BME280;61643;49.564;17.412;2023-03-12T21:37:13;97966.63;;;4.22;77.26
73429;BME280;61643;49.564;17.412;2023-03-12T21:39:40;97963.97;;;4.22;77.25
73429;BME280;61643;49.564;17.412;2023-03-12T21:42:06;97965.44;;;4.18;78.33
73429;BME280;61643;49.564;17.412;2023-03-12T21:44:36;97963.66;;;4.12;79.92
73429;BME280;61643;49.564;17.412;2023-03-12T21:47:05;97970.47;;;4.08;79.76
73429;BME280;61643;49.564;17.412;2023-03-12T21:49:32;97961.41;;;4.09;79.77
73429;BME280;61643;49.564;17.412;2023-03-12T21:52:00;97955.50;;;4.07;79.87
73429;BME280;61643;49.564;17.412;2023-03-12T21:54:32;97957.16;;;4.08;80.30
73429;BME280;61643;49.564;17.412;2023-03-12T21:57:03;97951.00;;;4.08;80.20
73429;BME280;61643;49.564;17.412;2023-03-12T21:59:29;97953.06;;;4.06;79.66
73429;BME280;61643;49.564;17.412;2023-03-12T22:01:57;97941.38;;;4.07;79.83
73429;BME280;61643;49.564;17.412;2023-03-12T22:04:23;97942.78;;;4.09;79.54
73429;BME280;61643;49.564;17.412;2023-03-12T22:06:50;97939.75;;;4.06;79.37
73429;BME280;61643;49.564;17.412;2023-03-12T22:09:16;97941.66;;;3.98;78.30
73429;BME280;61643;49.564;17.412;2023-03-12T22:11:43;97948.84;;;3.98;77.64